createdAt,value
2023-01-29T00:02:48.442Z,99310.69
2023-01-29T00:05:51.179Z,99313.31
2023-01-29T00:08:53.959Z,99309.41
2023-01-29T00:11:58.030Z,99305.59
2023-01-29T00:15:02.933Z,99315.72
2023-01-29T00:18:06.310Z,99317.78
2023-01-29T00:21:10.950Z,99306.97
2023-01-29T00:24:14.056Z,99312.06
2023-01-29T00:27:18.142Z,99315.72
2023-01-29T00:30:21.430Z,99312.63
2023-01-29T00:33:24.304Z,99322.41
2023-01-29T00:36:28.010Z,99309.94
2023-01-29T00:39:47.391Z,99308.53
2023-01-29T00:43:10.013Z,99301.25
2023-01-29T00:46:12.764Z,99304.44
2023-01-29T00:49:16.826Z,99305.16
2023-01-29T00:52:25.689Z,99312.25
2023-01-29T00:55:28.506Z,99307.97
2023-01-29T00:58:34.613Z,99304.19
2023-01-29T01:02:09.221Z,99309.72
2023-01-29T01:05:18.004Z,99305.72
2023-01-29T01:08:37.535Z,99310.81
2023-01-29T01:11:40.367Z,99307.72
2023-01-29T01:14:46.013Z,99312.38
2023-01-29T01:17:49.606Z,99304.06
2023-01-29T01:20:59.540Z,99317.16
2023-01-29T01:24:05.761Z,99310.25
2023-01-29T01:27:08.699Z,99296.75
2023-01-29T01:30:14.927Z,99299.47
2023-01-29T01:33:18.477Z,99295.81
2023-01-29T01:36:21.519Z,99306.78
2023-01-29T01:39:25.177Z,99314.78
2023-01-29T01:42:31.173Z,99307.00
2023-01-29T01:45:37.112Z,99305.50
2023-01-29T01:48:40.013Z,99300.41
2023-01-29T01:51:46.242Z,99300.16
2023-01-29T01:54:50.110Z,99304.38
2023-01-29T01:57:56.760Z,99300.66
2023-01-29T02:01:02.094Z,99301.59
2023-01-29T02:04:25.868Z,99297.56
2023-01-29T02:07:46.331Z,99289.56
2023-01-29T02:10:49.954Z,99304.25
2023-01-29T02:13:54.588Z,99305.75
2023-01-29T02:16:58.877Z,99309.41
2023-01-29T02:20:09.758Z,99305.91
2023-01-29T02:23:30.844Z,99300.53
2023-01-29T02:26:56.793Z,99311.44
2023-01-29T02:30:07.206Z,99310.75
2023-01-29T02:33:22.225Z,99310.84
2023-01-29T02:36:33.655Z,99301.34
2023-01-29T02:39:41.285Z,99295.97
2023-01-29T02:42:51.939Z,99299.66
2023-01-29T02:46:02.756Z,99307.47
2023-01-29T02:49:12.052Z,99300.94
2023-01-29T02:52:19.024Z,99302.84
2023-01-29T02:55:27.427Z,99301.47
2023-01-29T02:58:34.467Z,99292.34
2023-01-29T03:01:45.990Z,99289.63
2023-01-29T03:04:55.384Z,99302.28
2023-01-29T03:08:03.950Z,99297.81
2023-01-29T03:11:08.030Z,99302.91
2023-01-29T03:14:16.933Z,99301.19
2023-01-29T03:17:22.269Z,99296.41
2023-01-29T03:20:32.088Z,99299.06
2023-01-29T03:23:54.821Z,99302.34
2023-01-29T03:27:19.871Z,99299.16
2023-01-29T03:30:43.915Z,99307.50
2023-01-29T03:33:51.992Z,99299.31
2023-01-29T03:36:58.967Z,99299.56
2023-01-29T03:40:02.775Z,99298.97
2023-01-29T03:43:12.114Z,99298.16
2023-01-29T03:46:23.327Z,99296.13
2023-01-29T03:49:44.862Z,99297.41
2023-01-29T03:52:52.930Z,99297.84
2023-01-29T03:56:02.134Z,99295.84
2023-01-29T03:59:15.594Z,99302.22
2023-01-29T04:02:28.093Z,99298.41
2023-01-29T04:05:41.028Z,99302.78
2023-01-29T04:08:52.489Z,99299.41
2023-01-29T04:12:02.031Z,99307.06
2023-01-29T04:15:10.442Z,99302.78
2023-01-29T04:18:15.521Z,99298.69
2023-01-29T04:21:20.393Z,99303.97
2023-01-29T04:24:23.272Z,99305.13
2023-01-29T04:27:36.814Z,99313.41
2023-01-29T04:30:48.370Z,99309.06
2023-01-29T04:33:58.839Z,99308.19
2023-01-29T04:37:13.741Z,99306.53
2023-01-29T04:40:21.914Z,99293.59
2023-01-29T04:43:29.875Z,99298.50
2023-01-29T04:46:40.428Z,99303.44
2023-01-29T04:49:50.589Z,99303.69
2023-01-29T04:53:00.846Z,99303.88
2023-01-29T04:56:10.351Z,99296.47
2023-01-29T04:59:18.787Z,99288.91
2023-01-29T05:02:25.602Z,99305.06
2023-01-29T05:05:30.219Z,99299.06
2023-01-29T05:08:37.905Z,99298.97
2023-01-29T05:11:40.939Z,99294.44
2023-01-29T05:14:46.439Z,99296.88
2023-01-29T05:17:49.100Z,99296.44
2023-01-29T05:20:54.102Z,99301.00
2023-01-29T05:24:16.558Z,99306.06
2023-01-29T05:27:39.992Z,99306.53
2023-01-29T05:30:43.386Z,99314.72
2023-01-29T05:33:46.182Z,99310.91
2023-01-29T05:36:48.961Z,99309.72
2023-01-29T05:39:53.152Z,99306.66
2023-01-29T05:42:55.919Z,99308.38
2023-01-29T05:46:00.366Z,99292.72
2023-01-29T05:49:03.059Z,99287.06
2023-01-29T05:52:05.970Z,99275.66
2023-01-29T05:55:11.501Z,99252.97
2023-01-29T05:58:14.746Z,99251.72
2023-01-29T06:01:19.827Z,99268.66
2023-01-29T06:04:22.662Z,99277.13
2023-01-29T06:07:25.550Z,99281.97
2023-01-29T06:10:29.741Z,99279.22
2023-01-29T06:13:32.456Z,99278.88
2023-01-29T06:16:35.276Z,99284.50
2023-01-29T06:19:38.074Z,99283.34
2023-01-29T06:22:41.155Z,99290.44
2023-01-29T06:25:45.231Z,99289.44
2023-01-29T06:28:50.362Z,99287.88
2023-01-29T06:31:53.136Z,99291.16
2023-01-29T06:34:55.883Z,99294.28
2023-01-29T06:37:58.595Z,99285.97
2023-01-29T06:41:10.808Z,99291.19
2023-01-29T06:44:13.700Z,99289.09
2023-01-29T06:47:16.561Z,99294.81
2023-01-29T06:50:19.591Z,99282.69
2023-01-29T06:53:22.469Z,99285.19
2023-01-29T06:56:26.635Z,99288.06
2023-01-29T06:59:30.001Z,99299.16
2023-01-29T07:02:35.738Z,99302.78
2023-01-29T07:05:38.775Z,99308.91
2023-01-29T07:08:42.078Z,99297.34
2023-01-29T07:11:46.247Z,99303.09
2023-01-29T07:14:49.213Z,99292.34
2023-01-29T07:17:59.718Z,99305.72
2023-01-29T07:21:06.861Z,99302.91
2023-01-29T07:24:10.140Z,99308.47
2023-01-29T07:27:14.249Z,99306.47
2023-01-29T07:30:18.779Z,99306.72
2023-01-29T07:33:21.868Z,99314.09
2023-01-29T07:36:25.237Z,99320.25
2023-01-29T07:39:28.184Z,99320.09
2023-01-29T07:42:32.522Z,99326.47
2023-01-29T07:45:36.316Z,99325.72
2023-01-29T07:48:39.123Z,99330.63
2023-01-29T07:51:41.931Z,99329.50
2023-01-29T07:54:44.807Z,99329.78
2023-01-29T07:57:49.111Z,99332.00
2023-01-29T08:00:51.856Z,99345.44
2023-01-29T08:03:54.559Z,99339.72
2023-01-29T08:06:57.349Z,99336.72
2023-01-29T08:10:00.025Z,99335.38
2023-01-29T08:13:05.429Z,99335.81
2023-01-29T08:16:09.212Z,99334.78
2023-01-29T08:19:11.921Z,99343.78
2023-01-29T08:22:15.288Z,99345.59
2023-01-29T08:25:18.036Z,99354.47
2023-01-29T08:28:22.222Z,99356.25
2023-01-29T08:31:24.927Z,99355.16
2023-01-29T08:34:27.613Z,99350.44
2023-01-29T08:37:30.257Z,99359.00
2023-01-29T08:40:34.408Z,99363.19
2023-01-29T08:43:38.672Z,99365.00
2023-01-29T08:46:41.729Z,99368.03
2023-01-29T08:49:44.342Z,99363.56
2023-01-29T08:52:47.107Z,99361.19
2023-01-29T08:55:49.780Z,99363.25
2023-01-29T08:58:54.123Z,99360.16
2023-01-29T09:01:56.787Z,99368.72
2023-01-29T09:04:59.430Z,99355.31
2023-01-29T09:08:02.093Z,99361.03
2023-01-29T09:11:04.817Z,99370.03
2023-01-29T09:14:09.740Z,99384.63
2023-01-29T09:17:12.432Z,99372.19
2023-01-29T09:20:15.539Z,99371.41
2023-01-29T09:23:18.298Z,99367.81
2023-01-29T09:26:20.963Z,99372.13
2023-01-29T09:29:25.062Z,99385.53
2023-01-29T09:32:59.958Z,99382.69
2023-01-29T09:35:52.999Z,99376.47
2023-01-29T09:38:55.727Z,99367.84
2023-01-29T09:42:03.627Z,99370.94
2023-01-29T09:45:13.936Z,99353.94
2023-01-29T09:48:17.676Z,99354.19
2023-01-29T09:51:28.521Z,99347.16
2023-01-29T09:54:36.949Z,99340.03
2023-01-29T09:57:46.768Z,99329.38
2023-01-29T10:01:00.236Z,99314.78
2023-01-29T10:04:19.713Z,99304.91
2023-01-29T10:07:37.782Z,99293.97
2023-01-29T10:10:50.203Z,99290.13
2023-01-29T10:14:05.304Z,99298.25
2023-01-29T10:17:29.358Z,99297.66
2023-01-29T10:20:48.907Z,99304.34
2023-01-29T10:23:55.164Z,99298.25
2023-01-29T10:26:59.217Z,99304.59
2023-01-29T10:30:05.836Z,99311.34
2023-01-29T10:33:18.488Z,99309.28
2023-01-29T10:36:27.688Z,99291.53
2023-01-29T10:39:32.022Z,99295.00
2023-01-29T10:42:41.215Z,99302.31
2023-01-29T10:45:50.512Z,99313.72
2023-01-29T10:49:06.693Z,99315.97
2023-01-29T10:52:22.499Z,99304.13
2023-01-29T10:55:40.871Z,99293.13
2023-01-29T10:58:50.105Z,99296.41
2023-01-29T11:01:53.190Z,99301.28
2023-01-29T11:04:57.304Z,99305.19
2023-01-29T11:08:09.601Z,99304.97
2023-01-29T11:11:15.843Z,99300.91
2023-01-29T11:14:23.903Z,99303.31
2023-01-29T11:17:27.419Z,99292.34
2023-01-29T11:20:33.873Z,99300.94
2023-01-29T11:23:38.909Z,99279.69
2023-01-29T11:26:44.146Z,99273.97
2023-01-29T11:29:49.910Z,99266.44
2023-01-29T11:33:08.786Z,99255.84
2023-01-29T11:36:33.983Z,99262.34
2023-01-29T11:39:44.961Z,99257.06
2023-01-29T11:42:48.139Z,99261.75
2023-01-29T11:45:52.962Z,99255.25
2023-01-29T11:48:59.275Z,99261.16
2023-01-29T11:52:11.302Z,99250.38
2023-01-29T11:55:19.339Z,99251.41
2023-01-29T11:58:28.726Z,99246.28
2023-01-29T12:01:34.471Z,99237.69
2023-01-29T12:04:40.937Z,99230.75
2023-01-29T12:07:46.409Z,99222.50
2023-01-29T12:10:49.041Z,99211.50
2023-01-29T12:13:55.382Z,99197.25
2023-01-29T12:17:03.044Z,99193.19
2023-01-29T12:20:13.832Z,99181.81
2023-01-29T12:23:26.742Z,99181.53
2023-01-29T12:26:33.800Z,99168.53
2023-01-29T12:29:46.426Z,99150.22
2023-01-29T12:32:55.567Z,99138.84
2023-01-29T12:36:06.586Z,99134.97
2023-01-29T12:39:16.037Z,99137.91
2023-01-29T12:42:22.488Z,99121.75
2023-01-29T12:45:28.134Z,99123.63
2023-01-29T12:48:34.796Z,99113.31
2023-01-29T12:51:45.109Z,99109.91
2023-01-29T12:54:55.413Z,99110.06
2023-01-29T12:58:00.493Z,99105.19
2023-01-29T13:01:09.758Z,99103.19
2023-01-29T13:04:20.287Z,99095.78
2023-01-29T13:07:30.802Z,99094.66
2023-01-29T13:10:39.558Z,99086.66
2023-01-29T13:13:55.012Z,99083.03
2023-01-29T13:17:10.232Z,99082.94
2023-01-29T13:20:18.676Z,99081.88
2023-01-29T13:23:23.567Z,99075.19
2023-01-29T13:26:28.083Z,99076.78
2023-01-29T13:29:32.041Z,99081.84
2023-01-29T13:32:36.797Z,99080.13
2023-01-29T13:35:41.747Z,99087.59
2023-01-29T13:38:45.323Z,99094.06
2023-01-29T13:41:51.960Z,99081.69
2023-01-29T13:44:57.299Z,99083.13
2023-01-29T13:48:10.899Z,99094.66
2023-01-29T13:51:19.579Z,99097.81
2023-01-29T13:54:25.702Z,99094.88
2023-01-29T13:57:51.590Z,99097.84
2023-01-29T14:00:55.411Z,99093.47
2023-01-29T14:04:06.024Z,99098.69
2023-01-29T14:07:49.915Z,99096.69
2023-01-29T14:11:34.387Z,99087.41
2023-01-29T14:15:22.122Z,99083.53
2023-01-29T14:18:27.037Z,99084.81
2023-01-29T14:21:33.108Z,99087.53
2023-01-29T14:24:37.481Z,99088.59
2023-01-29T14:27:40.180Z,99083.34
2023-01-29T14:30:45.766Z,99076.03
2023-01-29T14:33:48.458Z,99076.34
2023-01-29T14:36:55.517Z,99070.47
2023-01-29T14:40:08.994Z,99076.41
2023-01-29T14:43:19.971Z,99075.22
2023-01-29T14:46:46.030Z,99076.88
2023-01-29T14:49:54.185Z,99077.69
2023-01-29T14:53:02.531Z,99077.13
2023-01-29T14:56:15.236Z,99065.31
2023-01-29T14:59:21.837Z,99065.50
2023-01-29T15:02:27.626Z,99074.31
2023-01-29T15:05:33.533Z,99075.16
2023-01-29T15:08:41.753Z,99082.09
2023-01-29T15:11:58.911Z,99091.44
2023-01-29T15:15:08.876Z,99090.66
2023-01-29T15:18:18.351Z,99088.81
2023-01-29T15:21:21.178Z,99084.13
2023-01-29T15:24:23.835Z,99088.44
2023-01-29T15:27:28.914Z,99082.13
2023-01-29T15:30:35.090Z,99076.81
2023-01-29T15:33:38.649Z,99067.22
2023-01-29T15:36:41.383Z,99073.53
2023-01-29T15:39:45.024Z,99073.94
2023-01-29T15:42:49.295Z,99078.00
2023-01-29T15:45:52.879Z,99079.22
2023-01-29T15:48:57.331Z,99080.00
2023-01-29T15:52:03.988Z,99083.06
2023-01-29T15:55:08.575Z,99080.22
2023-01-29T15:58:18.226Z,99077.94
2023-01-29T16:01:21.613Z,99085.47
2023-01-29T16:04:28.803Z,99083.84
2023-01-29T16:07:32.550Z,99084.91
2023-01-29T16:10:35.428Z,99078.75
2023-01-29T16:13:43.237Z,99082.38
2023-01-29T16:16:46.086Z,99079.50
2023-01-29T16:19:57.284Z,99066.78
2023-01-29T16:23:01.067Z,99067.31
2023-01-29T16:26:07.946Z,99069.78
2023-01-29T16:29:15.018Z,99075.25
2023-01-29T16:32:18.227Z,99076.91
2023-01-29T16:35:21.147Z,99074.88
2023-01-29T16:38:32.150Z,99079.28
2023-01-29T16:41:37.598Z,99085.97
2023-01-29T16:44:47.274Z,99088.91
2023-01-29T16:48:01.497Z,99089.50
2023-01-29T16:51:06.399Z,99089.44
2023-01-29T16:54:16.032Z,99103.00
2023-01-29T16:57:23.233Z,99092.38
2023-01-29T17:00:29.657Z,99101.97
2023-01-29T17:03:35.403Z,99107.25
2023-01-29T17:06:39.360Z,99105.97
2023-01-29T17:09:42.443Z,99106.19
2023-01-29T17:12:54.533Z,99109.44
2023-01-29T17:16:03.326Z,99107.50
2023-01-29T17:19:18.030Z,99107.38
2023-01-29T17:22:20.683Z,99098.59
2023-01-29T17:25:23.900Z,99098.28
2023-01-29T17:28:26.636Z,99097.94
2023-01-29T17:31:31.720Z,99088.50
2023-01-29T17:34:34.432Z,99082.16
2023-01-29T17:37:37.062Z,99090.47
2023-01-29T17:40:43.691Z,99090.19
2023-01-29T17:43:46.681Z,99088.53
2023-01-29T17:46:50.920Z,99087.66
2023-01-29T17:49:53.566Z,99081.31
2023-01-29T17:52:56.226Z,99091.41
2023-01-29T17:55:58.942Z,99090.34
2023-01-29T17:59:01.925Z,99088.00
2023-01-29T18:02:06.226Z,99083.13
2023-01-29T18:05:09.446Z,99078.66
2023-01-29T18:08:17.463Z,99079.84
2023-01-29T18:11:20.247Z,99081.53
2023-01-29T18:14:22.964Z,99083.13
2023-01-29T18:17:26.999Z,99087.50
2023-01-29T18:20:30.181Z,99082.69
2023-01-29T18:23:35.340Z,99082.69
2023-01-29T18:26:39.426Z,99075.63
2023-01-29T18:29:42.203Z,99080.00
2023-01-29T18:32:47.568Z,99081.38
2023-01-29T18:35:50.283Z,99079.91
2023-01-29T18:38:52.939Z,99080.16
2023-01-29T18:41:55.595Z,99077.91
2023-01-29T18:44:58.298Z,99075.91
2023-01-29T18:48:02.407Z,99078.00
2023-01-29T18:51:05.505Z,99073.53
2023-01-29T18:54:08.141Z,99075.81
2023-01-29T18:57:13.747Z,99082.50
2023-01-29T19:00:17.819Z,99078.75
2023-01-29T19:03:21.935Z,99084.94
2023-01-29T19:06:26.129Z,99088.94
2023-01-29T19:09:28.814Z,99098.97
2023-01-29T19:12:31.716Z,99095.16
2023-01-29T19:15:37.983Z,99097.78
2023-01-29T19:18:42.394Z,99092.50
2023-01-29T19:21:45.422Z,99099.94
2023-01-29T19:24:48.167Z,99110.13
2023-01-29T19:27:50.828Z,99110.56
2023-01-29T19:30:53.496Z,99116.88
2023-01-29T19:33:57.945Z,99114.22
2023-01-29T19:37:00.872Z,99111.97
2023-01-29T19:40:03.554Z,99105.97
2023-01-29T19:43:06.309Z,99106.88
2023-01-29T19:46:09.229Z,99104.44
2023-01-29T19:49:13.331Z,99100.22
2023-01-29T19:52:49.707Z,99112.88
2023-01-29T19:56:00.442Z,99103.69
2023-01-29T19:59:03.148Z,99110.22
2023-01-29T20:02:05.801Z,99099.88
2023-01-29T20:05:12.027Z,99104.69
2023-01-29T20:08:14.728Z,99100.16
2023-01-29T20:11:19.147Z,99097.66
2023-01-29T20:14:22.073Z,99100.41
2023-01-29T20:17:24.734Z,99101.06
2023-01-29T20:20:28.995Z,99093.31
2023-01-29T20:23:38.203Z,99093.31
2023-01-29T20:26:41.323Z,99088.16
2023-01-29T20:29:45.251Z,99088.31
2023-01-29T20:32:48.310Z,99078.28
2023-01-29T20:36:16.128Z,99071.41
2023-01-29T20:40:00.265Z,99075.31
2023-01-29T20:43:46.271Z,99062.34
2023-01-29T20:52:18.221Z,99040.34
2023-01-29T20:56:09.423Z,99041.09
2023-01-29T21:16:44.739Z,99034.69
2023-01-29T21:20:15.176Z,99034.44
2023-01-29T21:24:00.047Z,99044.31
2023-01-29T21:27:26.666Z,99048.94
2023-01-29T21:31:07.938Z,99042.84
2023-01-29T21:35:00.016Z,99042.72
2023-01-29T21:42:36.760Z,99054.84
2023-01-29T21:46:33.236Z,99051.00
2023-01-29T21:50:44.154Z,99045.50
2023-01-29T21:54:42.529Z,99050.63
2023-01-29T21:58:30.288Z,99041.03
2023-01-29T22:02:23.348Z,99039.97
2023-01-29T22:05:48.146Z,99047.22
2023-01-29T22:09:31.280Z,99035.78
2023-01-29T22:17:39.845Z,99042.22
2023-01-29T22:21:00.438Z,99044.66
2023-01-29T22:24:23.501Z,99039.63
2023-01-29T22:28:04.937Z,99037.22
2023-01-29T22:40:24.013Z,99031.28
2023-01-29T22:47:21.834Z,99001.50
2023-01-29T22:50:50.001Z,98983.47
2023-01-29T22:54:44.652Z,98979.56
2023-01-29T22:58:01.615Z,98969.13
2023-01-29T23:05:06.801Z,98946.47
2023-01-29T23:08:33.327Z,98932.66
2023-01-29T23:16:40.232Z,98946.47
2023-01-29T23:19:54.315Z,98936.09
2023-01-29T23:23:09.166Z,98935.56
2023-01-29T23:27:06.626Z,98928.06
2023-01-29T23:30:14.323Z,98926.97
2023-01-29T23:33:22.772Z,98923.34
2023-01-29T23:36:29.724Z,98929.78
2023-01-29T23:39:41.220Z,98925.69
2023-01-29T23:42:48.066Z,98927.59
2023-01-29T23:45:55.297Z,98924.19
2023-01-29T23:49:08.346Z,98910.75
2023-01-29T23:52:16.961Z,98903.94
2023-01-29T23:55:24.035Z,98901.75
2023-01-29T23:58:34.490Z,98903.22
